sensor_id;sensor_type;location;lat;lon;timestamp;pressure;altitude;pressure_sealevel;temperature;humidity
54194;BME280;40102;50.906;6.972;2023-11-21T00:01:15;100353.63;;;10.11;100.00
54194;BME280;40102;50.906;6.972;2023-11-21T00:03:40;100357.25;;;10.10;100.00
54194;BME280;40102;50.906;6.972;2023-11-21T00:06:06;100355.53;;;10.09;100.00
54194;BME280;40102;50.906;6.972;2023-11-21T00:08:34;100361.66;;;10.11;100.00
54194;BME280;40102;50.906;6.972;2023-11-21T00:11:00;100358.97;;;10.11;100.00
54194;BME280;40102;50.906;6.972;2023-11-21T00:13:25;100347.09;;;10.00;100.00
54194;BME280;40102;50.906;6.972;2023-11-21T00:15:51;100360.00;;;10.08;100.00
54194;BME280;40102;50.906;6.972;2023-11-21T00:18:16;100362.59;;;10.10;100.00
54194;BME280;40102;50.906;6.972;2023-11-21T00:20:41;100360.88;;;10.09;100.00
54194;BME280;40102;50.906;6.972;2023-11-21T00:23:07;100367.00;;;10.11;100.00
54194;BME280;40102;50.906;6.972;2023-11-21T00:25:32;100366.13;;;10.10;100.00
54194;BME280;40102;50.906;6.972;2023-11-21T00:27:58;100367.94;;;10.10;100.00
54194;BME280;40102;50.906;6.972;2023-11-21T00:30:23;100359.84;;;10.11;100.00
54194;BME280;40102;50.906;6.972;2023-11-21T00:32:48;100358.28;;;10.07;100.00
54194;BME280;40102;50.906;6.972;2023-11-21T00:35:14;100363.63;;;10.07;100.00
54194;BME280;40102;50.906;6.972;2023-11-21T00:37:39;100368.13;;;10.06;100.00
54194;BME280;40102;50.906;6.972;2023-11-21T00:40:05;100375.19;;;10.07;100.00
54194;BME280;40102;50.906;6.972;2023-11-21T00:42:31;100372.44;;;10.09;100.00
54194;BME280;40102;50.906;6.972;2023-11-21T00:44:59;100376.81;;;10.10;100.00
54194;BME280;40102;50.906;6.972;2023-11-21T00:47:25;100384.56;;;10.15;100.00
54194;BME280;40102;50.906;6.972;2023-11-21T00:49:50;100382.84;;;10.14;100.00
54194;BME280;40102;50.906;6.972;2023-11-21T00:52:15;100367.75;;;10.13;100.00
54194;BME280;40102;50.906;6.972;2023-11-21T00:54:41;100384.28;;;10.19;100.00
54194;BME280;40102;50.906;6.972;2023-11-21T00:57:07;100388.78;;;10.19;100.00
54194;BME280;40102;50.906;6.972;2023-11-21T00:59:33;100388.78;;;10.19;100.00
54194;BME280;40102;50.906;6.972;2023-11-21T01:02:00;100387.84;;;10.20;100.00
54194;BME280;40102;50.906;6.972;2023-11-21T01:04:26;100400.09;;;10.24;100.00
54194;BME280;40102;50.906;6.972;2023-11-21T01:06:52;100389.50;;;10.22;100.00
54194;BME280;40102;50.906;6.972;2023-11-21T01:09:18;100396.47;;;10.25;100.00
54194;BME280;40102;50.906;6.972;2023-11-21T01:11:43;100396.38;;;10.26;100.00
54194;BME280;40102;50.906;6.972;2023-11-21T01:14:09;100396.47;;;10.25;100.00
54194;BME280;40102;50.906;6.972;2023-11-21T01:16:35;100404.47;;;10.25;100.00
54194;BME280;40102;50.906;6.972;2023-11-21T01:19:04;100408.09;;;10.24;100.00
54194;BME280;40102;50.906;6.972;2023-11-21T01:21:30;100408.09;;;10.24;100.00
54194;BME280;40102;50.906;6.972;2023-11-21T01:23:56;100422.44;;;10.23;100.00
54194;BME280;40102;50.906;6.972;2023-11-21T01:26:21;100407.44;;;10.20;100.00
54194;BME280;40102;50.906;6.972;2023-11-21T01:28:47;100419.13;;;10.18;100.00
54194;BME280;40102;50.906;6.972;2023-11-21T01:31:14;100422.59;;;10.20;100.00
54194;BME280;40102;50.906;6.972;2023-11-21T01:33:40;100419.03;;;10.19;100.00
54194;BME280;40102;50.906;6.972;2023-11-21T01:36:05;100422.59;;;10.20;100.00
54194;BME280;40102;50.906;6.972;2023-11-21T01:38:32;100425.28;;;10.20;100.00
54194;BME280;40102;50.906;6.972;2023-11-21T01:40:57;100430.63;;;10.20;100.00
54194;BME280;40102;50.906;6.972;2023-11-21T01:43:26;100432.34;;;10.21;100.00
54194;BME280;40102;50.906;6.972;2023-11-21T01:45:51;100433.22;;;10.21;100.00
54194;BME280;40102;50.906;6.972;2023-11-21T01:48:17;100424.31;;;10.21;100.00
54194;BME280;40102;50.906;6.972;2023-11-21T01:50:42;100436.81;;;10.20;100.00
54194;BME280;40102;50.906;6.972;2023-11-21T01:53:08;100433.28;;;10.20;100.00
54194;BME280;40102;50.906;6.972;2023-11-21T01:55:34;100434.16;;;10.20;100.00
54194;BME280;40102;50.906;6.972;2023-11-21T01:58:00;100445.72;;;10.21;100.00
54194;BME280;40102;50.906;6.972;2023-11-21T02:00:25;100434.16;;;10.20;100.00
54194;BME280;40102;50.906;6.972;2023-11-21T02:02:53;100440.28;;;10.22;100.00
54194;BME280;40102;50.906;6.972;2023-11-21T02:05:19;100436.75;;;10.22;100.00
54194;BME280;40102;50.906;6.972;2023-11-21T02:07:47;100439.56;;;10.19;100.00
54194;BME280;40102;50.906;6.972;2023-11-21T02:10:17;100448.28;;;10.22;100.00
54194;BME280;40102;50.906;6.972;2023-11-21T02:12:47;100446.56;;;10.21;100.00
54194;BME280;40102;50.906;6.972;2023-11-21T02:15:13;100447.75;;;10.16;100.00
54194;BME280;40102;50.906;6.972;2023-11-21T02:17:48;100458.44;;;10.16;100.00
54194;BME280;40102;50.906;6.972;2023-11-21T02:20:19;100461.13;;;10.16;100.00
54194;BME280;40102;50.906;6.972;2023-11-21T02:22:56;100463.78;;;10.16;100.00
54194;BME280;40102;50.906;6.972;2023-11-21T02:25:29;100462.84;;;10.17;100.00
54194;BME280;40102;50.906;6.972;2023-11-21T02:27:59;100468.19;;;10.17;100.00
54194;BME280;40102;50.906;6.972;2023-11-21T02:30:26;100463.78;;;10.16;100.00
54194;BME280;40102;50.906;6.972;2023-11-21T02:32:57;100470.84;;;10.17;100.00
54194;BME280;40102;50.906;6.972;2023-11-21T02:35:23;100470.00;;;10.16;100.00
54194;BME280;40102;50.906;6.972;2023-11-21T02:37:51;100476.22;;;10.17;100.00
54194;BME280;40102;50.906;6.972;2023-11-21T02:40:16;100473.63;;;10.15;100.00
54194;BME280;40102;50.906;6.972;2023-11-21T02:42:46;100468.28;;;10.15;100.00
54194;BME280;40102;50.906;6.972;2023-11-21T02:45:15;100478.97;;;10.15;100.00
54194;BME280;40102;50.906;6.972;2023-11-21T02:47:46;100473.63;;;10.15;100.00
54194;BME280;40102;50.906;6.972;2023-11-21T02:50:12;100470.94;;;10.15;100.00
54194;BME280;40102;50.906;6.972;2023-11-21T02:52:37;100470.94;;;10.15;100.00
54194;BME280;40102;50.906;6.972;2023-11-21T02:55:04;100481.56;;;10.17;100.00
54194;BME280;40102;50.906;6.972;2023-11-21T02:57:29;100481.56;;;10.17;100.00
54194;BME280;40102;50.906;6.972;2023-11-21T02:59:55;100476.28;;;10.15;100.00
54194;BME280;40102;50.906;6.972;2023-11-21T03:02:21;100471.91;;;10.14;100.00
54194;BME280;40102;50.906;6.972;2023-11-21T03:04:46;100466.72;;;10.11;100.00
54194;BME280;40102;50.906;6.972;2023-11-21T03:07:14;100473.88;;;10.11;100.00
54194;BME280;40102;50.906;6.972;2023-11-21T03:09:39;100465.00;;;10.10;100.00
54194;BME280;40102;50.906;6.972;2023-11-21T03:12:05;100475.53;;;10.13;100.00
54194;BME280;40102;50.906;6.972;2023-11-21T03:14:30;100473.88;;;10.11;100.00
54194;BME280;40102;50.906;6.972;2023-11-21T03:16:56;100483.63;;;10.12;100.00
54194;BME280;40102;50.906;6.972;2023-11-21T03:19:22;100488.28;;;10.08;100.00
54194;BME280;40102;50.906;6.972;2023-11-21T03:21:47;100488.28;;;10.08;100.00
54194;BME280;40102;50.906;6.972;2023-11-21T03:24:13;100495.25;;;10.11;100.00
54194;BME280;40102;50.906;6.972;2023-11-21T03:26:38;100495.19;;;10.12;100.00
54194;BME280;40102;50.906;6.972;2023-11-21T03:29:03;100504.81;;;10.15;100.00
54194;BME280;40102;50.906;6.972;2023-11-21T03:31:30;100496.31;;;10.08;100.00
54194;BME280;40102;50.906;6.972;2023-11-21T03:33:55;100505.88;;;10.12;100.00
54194;BME280;40102;50.906;6.972;2023-11-21T03:36:20;100513.78;;;10.14;100.00
54194;BME280;40102;50.906;6.972;2023-11-21T03:38:48;100510.44;;;10.10;100.00
54194;BME280;40102;50.906;6.972;2023-11-21T03:41:13;100508.81;;;10.07;100.00
54194;BME280;40102;50.906;6.972;2023-11-21T03:43:39;100501.72;;;10.06;100.00
54194;BME280;40102;50.906;6.972;2023-11-21T03:46:05;100518.53;;;10.09;100.00
54194;BME280;40102;50.906;6.972;2023-11-21T03:48:30;100512.59;;;10.03;100.00
54194;BME280;40102;50.906;6.972;2023-11-21T03:50:58;100532.00;;;10.07;100.00
54194;BME280;40102;50.906;6.972;2023-11-21T03:53:23;100527.50;;;10.07;100.00
54194;BME280;40102;50.906;6.972;2023-11-21T03:55:49;100531.22;;;10.05;100.00
54194;BME280;40102;50.906;6.972;2023-11-21T03:58:15;100532.84;;;10.07;100.00
54194;BME280;40102;50.906;6.972;2023-11-21T04:00:40;100532.84;;;10.07;100.00
54194;BME280;40102;50.906;6.972;2023-11-21T04:03:05;100540.78;;;10.09;100.00
54194;BME280;40102;50.906;6.972;2023-11-21T04:05:31;100538.19;;;10.07;100.00
54194;BME280;40102;50.906;6.972;2023-11-21T04:07:56;100536.66;;;10.03;100.00
54194;BME280;40102;50.906;6.972;2023-11-21T04:10:21;100546.47;;;10.03;100.00
54194;BME280;40102;50.906;6.972;2023-11-21T04:12:47;100554.31;;;10.06;100.00
54194;BME280;40102;50.906;6.972;2023-11-21T04:15:13;100565.00;;;10.06;100.00
54194;BME280;40102;50.906;6.972;2023-11-21T04:17:39;100557.94;;;10.05;100.00
54194;BME280;40102;50.906;6.972;2023-11-21T04:20:05;100560.44;;;10.08;100.00
54194;BME280;40102;50.906;6.972;2023-11-21T04:22:36;100562.25;;;10.07;100.00
54194;BME280;40102;50.906;6.972;2023-11-21T04:25:01;100558.81;;;10.05;100.00
54194;BME280;40102;50.906;6.972;2023-11-21T04:27:27;100555.19;;;10.06;100.00
54194;BME280;40102;50.906;6.972;2023-11-21T04:29:52;100560.44;;;10.08;100.00
54194;BME280;40102;50.906;6.972;2023-11-21T04:32:17;100556.91;;;10.07;100.00
54194;BME280;40102;50.906;6.972;2023-11-21T04:34:42;100561.31;;;10.09;100.00
54194;BME280;40102;50.906;6.972;2023-11-21T04:37:08;100554.41;;;10.04;100.00
54194;BME280;40102;50.906;6.972;2023-11-21T04:39:35;100553.53;;;10.04;100.00
54194;BME280;40102;50.906;6.972;2023-11-21T04:42:01;100556.22;;;10.04;100.00
54194;BME280;40102;50.906;6.972;2023-11-21T04:44:26;100568.53;;;10.06;100.00
54194;BME280;40102;50.906;6.972;2023-11-21T04:46:51;100556.38;;;10.01;100.00
54194;BME280;40102;50.906;6.972;2023-11-21T04:49:16;100561.56;;;10.04;100.00
54194;BME280;40102;50.906;6.972;2023-11-21T04:51:42;100560.00;;;10.00;100.00
54194;BME280;40102;50.906;6.972;2023-11-21T04:54:07;100567.00;;;10.02;100.00
54194;BME280;40102;50.906;6.972;2023-11-21T04:56:32;100558.03;;;10.03;100.00
54194;BME280;40102;50.906;6.972;2023-11-21T04:58:58;100568.88;;;10.00;100.00
54194;BME280;40102;50.906;6.972;2023-11-21T05:01:23;100570.69;;;10.00;100.00
54194;BME280;40102;50.906;6.972;2023-11-21T05:03:48;100570.88;;;9.97;100.00
54194;BME280;40102;50.906;6.972;2023-11-21T05:06:14;100579.66;;;9.99;100.00
54194;BME280;40102;50.906;6.972;2023-11-21T05:08:42;100579.66;;;9.99;100.00
54194;BME280;40102;50.906;6.972;2023-11-21T05:11:07;100578.88;;;9.97;100.00
54194;BME280;40102;50.906;6.972;2023-11-21T05:13:35;100578.97;;;9.95;100.00
54194;BME280;40102;50.906;6.972;2023-11-21T05:16:01;100585.25;;;9.94;100.00
54194;BME280;40102;50.906;6.972;2023-11-21T05:18:29;100584.31;;;9.95;100.00
54194;BME280;40102;50.906;6.972;2023-11-21T05:20:55;100599.22;;;9.99;100.00
54194;BME280;40102;50.906;6.972;2023-11-21T05:23:21;100600.16;;;9.98;100.00
54194;BME280;40102;50.906;6.972;2023-11-21T05:25:46;100602.75;;;10.00;100.00
54194;BME280;40102;50.906;6.972;2023-11-21T05:28:12;100602.75;;;10.00;100.00
54194;BME280;40102;50.906;6.972;2023-11-21T05:30:37;100600.94;;;10.00;100.00
54194;BME280;40102;50.906;6.972;2023-11-21T05:33:04;100605.50;;;9.98;100.00
54194;BME280;40102;50.906;6.972;2023-11-21T05:35:29;100609.03;;;9.99;100.00
54194;BME280;40102;50.906;6.972;2023-11-21T05:37:54;100612.66;;;9.98;100.00
54194;BME280;40102;50.906;6.972;2023-11-21T05:40:20;100600.25;;;9.97;100.00
54194;BME280;40102;50.906;6.972;2023-11-21T05:42:47;100620.00;;;9.94;100.00
54194;BME280;40102;50.906;6.972;2023-11-21T05:45:13;100625.34;;;9.94;100.00
54194;BME280;40102;50.906;6.972;2023-11-21T05:47:40;100616.63;;;9.91;100.00
54194;BME280;40102;50.906;6.972;2023-11-21T05:50:07;100620.41;;;9.87;100.00
54194;BME280;40102;50.906;6.972;2023-11-21T05:52:36;100633.69;;;9.88;100.00
54194;BME280;40102;50.906;6.972;2023-11-21T05:55:02;100631.16;;;9.85;100.00
54194;BME280;40102;50.906;6.972;2023-11-21T05:57:27;100629.44;;;9.84;100.00
54194;BME280;40102;50.906;6.972;2023-11-21T05:59:52;100642.81;;;9.84;100.00
54194;BME280;40102;50.906;6.972;2023-11-21T06:02:18;100639.34;;;9.82;100.00
54194;BME280;40102;50.906;6.972;2023-11-21T06:04:44;100646.41;;;9.83;100.00
54194;BME280;40102;50.906;6.972;2023-11-21T06:07:09;100653.66;;;9.81;100.00
54194;BME280;40102;50.906;6.972;2023-11-21T06:09:35;100657.19;;;9.82;100.00
54194;BME280;40102;50.906;6.972;2023-11-21T06:12:00;100664.25;;;9.83;100.00
54194;BME280;40102;50.906;6.972;2023-11-21T06:14:26;100660.72;;;9.82;100.00
54194;BME280;40102;50.906;6.972;2023-11-21T06:16:51;100668.56;;;9.85;100.00
54194;BME280;40102;50.906;6.972;2023-11-21T06:19:17;100672.09;;;9.86;100.00
54194;BME280;40102;50.906;6.972;2023-11-21T06:21:46;100672.03;;;9.87;100.00
54194;BME280;40102;50.906;6.972;2023-11-21T06:24:11;100672.97;;;9.86;100.00
54194;BME280;40102;50.906;6.972;2023-11-21T06:26:37;100671.50;;;9.81;100.00
54194;BME280;40102;50.906;6.972;2023-11-21T06:29:03;100678.63;;;9.80;100.00
54194;BME280;40102;50.906;6.972;2023-11-21T06:31:32;100675.44;;;10.06;100.00
54194;BME280;40102;50.906;6.972;2023-11-21T06:33:58;100677.28;;;10.53;100.00
54194;BME280;40102;50.906;6.972;2023-11-21T06:36:24;100684.88;;;10.92;100.00
54194;BME280;40102;50.906;6.972;2023-11-21T06:38:51;100684.91;;;11.22;100.00
54194;BME280;40102;50.906;6.972;2023-11-21T06:41:16;100686.00;;;11.34;100.00
54194;BME280;40102;50.906;6.972;2023-11-21T06:43:42;100684.53;;;11.28;100.00
54194;BME280;40102;50.906;6.972;2023-11-21T06:46:11;100694.88;;;11.34;100.00
54194;BME280;40102;50.906;6.972;2023-11-21T06:48:36;100700.66;;;11.43;100.00
54194;BME280;40102;50.906;6.972;2023-11-21T06:51:03;100695.59;;;11.52;100.00
54194;BME280;40102;50.906;6.972;2023-11-21T06:53:29;100706.13;;;11.55;100.00
54194;BME280;40102;50.906;6.972;2023-11-21T06:55:54;100707.56;;;11.47;100.00
54194;BME280;40102;50.906;6.972;2023-11-21T06:58:20;100703.47;;;11.25;99.95
54194;BME280;40102;50.906;6.972;2023-11-21T07:00:45;100708.16;;;11.06;98.31
54194;BME280;40102;50.906;6.972;2023-11-21T07:03:13;100720.09;;;10.85;97.33
54194;BME280;40102;50.906;6.972;2023-11-21T07:05:39;100708.09;;;10.60;97.62
54194;BME280;40102;50.906;6.972;2023-11-21T07:08:04;100727.50;;;10.48;97.80
54194;BME280;40102;50.906;6.972;2023-11-21T07:10:29;100736.81;;;10.41;98.48
54194;BME280;40102;50.906;6.972;2023-11-21T07:12:55;100741.03;;;10.29;98.97
54194;BME280;40102;50.906;6.972;2023-11-21T07:15:22;100738.88;;;10.20;99.31
54194;BME280;40102;50.906;6.972;2023-11-21T07:17:47;100751.50;;;10.17;99.74
54194;BME280;40102;50.906;6.972;2023-11-21T07:20:13;100750.97;;;10.10;100.00
54194;BME280;40102;50.906;6.972;2023-11-21T07:22:39;100755.78;;;10.03;100.00
54194;BME280;40102;50.906;6.972;2023-11-21T07:25:05;100752.56;;;9.97;100.00
54194;BME280;40102;50.906;6.972;2023-11-21T07:27:32;100764.28;;;9.94;100.00
54194;BME280;40102;50.906;6.972;2023-11-21T07:30:00;100766.94;;;9.94;100.00
54194;BME280;40102;50.906;6.972;2023-11-21T07:32:26;100774.97;;;9.94;100.00
54194;BME280;40102;50.906;6.972;2023-11-21T07:34:51;100780.31;;;9.94;100.00
54194;BME280;40102;50.906;6.972;2023-11-21T07:37:16;100781.16;;;9.95;100.00
54194;BME280;40102;50.906;6.972;2023-11-21T07:39:42;100783.75;;;9.96;100.00
54194;BME280;40102;50.906;6.972;2023-11-21T07:42:07;100791.84;;;9.95;100.00
54194;BME280;40102;50.906;6.972;2023-11-21T07:44:32;100786.75;;;9.90;100.00
54194;BME280;40102;50.906;6.972;2023-11-21T07:46:57;100785.88;;;9.90;100.00
54194;BME280;40102;50.906;6.972;2023-11-21T07:49:24;100788.56;;;9.90;100.00
54194;BME280;40102;50.906;6.972;2023-11-21T07:51:50;100797.34;;;9.92;100.00
54194;BME280;40102;50.906;6.972;2023-11-21T07:54:15;100791.16;;;9.91;100.00
54194;BME280;40102;50.906;6.972;2023-11-21T07:56:41;100793.91;;;9.90;100.00
54194;BME280;40102;50.906;6.972;2023-11-21T07:59:07;100793.91;;;9.90;100.00
54194;BME280;40102;50.906;6.972;2023-11-21T08:01:32;100795.63;;;9.91;100.00
54194;BME280;40102;50.906;6.972;2023-11-21T08:03:58;100792.97;;;9.91;100.00
54194;BME280;40102;50.906;6.972;2023-11-21T08:06:26;100797.34;;;9.92;100.00
54194;BME280;40102;50.906;6.972;2023-11-21T08:08:52;100804.28;;;9.96;100.00
54194;BME280;40102;50.906;6.972;2023-11-21T08:11:17;100808.91;;;9.92;100.00
54194;BME280;40102;50.906;6.972;2023-11-21T08:13:42;100811.34;;;9.97;100.00
54194;BME280;40102;50.906;6.972;2023-11-21T08:16:08;100813.06;;;9.98;100.00
54194;BME280;40102;50.906;6.972;2023-11-21T08:18:33;100815.81;;;9.96;100.00
54194;BME280;40102;50.906;6.972;2023-11-21T08:20:59;100812.38;;;9.94;100.00
54194;BME280;40102;50.906;6.972;2023-11-21T08:23:24;100825.66;;;9.96;100.00
54194;BME280;40102;50.906;6.972;2023-11-21T08:25:53;100838.94;;;9.97;100.00
54194;BME280;40102;50.906;6.972;2023-11-21T08:28:19;100851.34;;;9.98;100.00
54194;BME280;40102;50.906;6.972;2023-11-21T08:30:45;100838.22;;;9.94;100.00
54194;BME280;40102;50.906;6.972;2023-11-21T08:33:10;100857.00;;;9.92;100.00
54194;BME280;40102;50.906;6.972;2023-11-21T08:35:38;100850.88;;;9.90;100.00
54194;BME280;40102;50.906;6.972;2023-11-21T08:38:04;100853.53;;;9.90;100.00
54194;BME280;40102;50.906;6.972;2023-11-21T08:40:30;100865.88;;;9.93;100.00
54194;BME280;40102;50.906;6.972;2023-11-21T08:42:55;100864.16;;;9.92;100.00
54194;BME280;40102;50.906;6.972;2023-11-21T08:45:21;100865.97;;;9.91;100.00
54194;BME280;40102;50.906;6.972;2023-11-21T08:47:47;100873.91;;;9.93;100.00
54194;BME280;40102;50.906;6.972;2023-11-21T08:50:13;100865.09;;;9.91;100.00
54194;BME280;40102;50.906;6.972;2023-11-21T08:52:39;100866.03;;;9.90;100.00
54194;BME280;40102;50.906;6.972;2023-11-21T08:55:05;100879.47;;;9.88;100.00
54194;BME280;40102;50.906;6.972;2023-11-21T08:57:35;100878.69;;;9.86;100.00
54194;BME280;40102;50.906;6.972;2023-11-21T09:00:03;100878.69;;;9.86;100.00
54194;BME280;40102;50.906;6.972;2023-11-21T09:02:30;100880.56;;;9.84;100.00
54194;BME280;40102;50.906;6.972;2023-11-21T09:04:56;100881.19;;;9.89;100.00
54194;BME280;40102;50.906;6.972;2023-11-21T09:07:22;100881.19;;;9.89;100.00
54194;BME280;40102;50.906;6.972;2023-11-21T09:09:48;100882.16;;;9.88;100.00
54194;BME280;40102;50.906;6.972;2023-11-21T09:12:14;100881.19;;;9.89;100.00
54194;BME280;40102;50.906;6.972;2023-11-21T09:14:39;100888.13;;;9.93;100.00
54194;BME280;40102;50.906;6.972;2023-11-21T09:17:05;100885.53;;;9.92;100.00
54194;BME280;40102;50.906;6.972;2023-11-21T09:19:36;100878.38;;;9.92;100.00
54194;BME280;40102;50.906;6.972;2023-11-21T09:22:02;100884.50;;;9.94;100.00
54194;BME280;40102;50.906;6.972;2023-11-21T09:24:27;100891.81;;;9.91;100.00
54194;BME280;40102;50.906;6.972;2023-11-21T09:26:52;100899.75;;;9.92;100.00
54194;BME280;40102;50.906;6.972;2023-11-21T09:29:18;100903.44;;;9.90;100.00
54194;BME280;40102;50.906;6.972;2023-11-21T09:31:44;100907.22;;;9.86;100.00
54194;BME280;40102;50.906;6.972;2023-11-21T09:34:09;100907.28;;;9.84;100.00
54194;BME280;40102;50.906;6.972;2023-11-21T09:36:36;100915.38;;;9.83;100.00
54194;BME280;40102;50.906;6.972;2023-11-21T09:39:03;100916.38;;;9.80;100.00
54194;BME280;40102;50.906;6.972;2023-11-21T09:41:49;100920.94;;;9.78;100.00
54194;BME280;40102;50.906;6.972;2023-11-21T09:44:18;100924.72;;;9.74;100.00
54194;BME280;40102;50.906;6.972;2023-11-21T09:46:47;100917.47;;;9.76;100.00
54194;BME280;40102;50.906;6.972;2023-11-21T09:49:13;100929.81;;;9.79;100.00
54194;BME280;40102;50.906;6.972;2023-11-21T09:51:42;100935.09;;;9.80;100.00
54194;BME280;40102;50.906;6.972;2023-11-21T09:54:10;100934.16;;;9.81;100.00
54194;BME280;40102;50.906;6.972;2023-11-21T09:56:37;100935.03;;;9.82;100.00
54194;BME280;40102;50.906;6.972;2023-11-21T09:59:03;100944.13;;;9.78;100.00
54194;BME280;40102;50.906;6.972;2023-11-21T10:01:32;100941.38;;;9.79;100.00
54194;BME280;40102;50.906;6.972;2023-11-21T10:03:58;100944.84;;;9.81;100.00
54194;BME280;40102;50.906;6.972;2023-11-21T10:06:25;100940.28;;;9.83;100.00
54194;BME280;40102;50.906;6.972;2023-11-21T10:08:53;100940.22;;;9.85;100.00
54194;BME280;40102;50.906;6.972;2023-11-21T10:11:19;100934.88;;;9.85;100.00
54194;BME280;40102;50.906;6.972;2023-11-21T10:13:46;100934.00;;;9.84;100.00
54194;BME280;40102;50.906;6.972;2023-11-21T10:16:15;100928.50;;;9.87;100.00
54194;BME280;40102;50.906;6.972;2023-11-21T10:18:47;100932.84;;;9.90;100.00
54194;BME280;40102;50.906;6.972;2023-11-21T10:21:13;100934.56;;;9.91;100.00
54194;BME280;40102;50.906;6.972;2023-11-21T10:23:39;100931.81;;;9.92;100.00
54194;BME280;40102;50.906;6.972;2023-11-21T10:26:06;100933.53;;;9.93;100.00
54194;BME280;40102;50.906;6.972;2023-11-21T10:28:35;100925.69;;;9.90;100.00
54194;BME280;40102;50.906;6.972;2023-11-21T10:31:02;100927.34;;;9.93;100.00
54194;BME280;40102;50.906;6.972;2023-11-21T10:33:28;100937.78;;;9.97;100.00
54194;BME280;40102;50.906;6.972;2023-11-21T10:35:57;100940.38;;;9.99;100.00
54194;BME280;40102;50.906;6.972;2023-11-21T10:38:23;100943.00;;;10.00;100.00
54194;BME280;40102;50.906;6.972;2023-11-21T10:40:50;100948.25;;;10.02;100.00
54194;BME280;40102;50.906;6.972;2023-11-21T10:43:16;100938.44;;;10.02;100.00
54194;BME280;40102;50.906;6.972;2023-11-21T10:45:42;100948.03;;;10.06;100.00
54194;BME280;40102;50.906;6.972;2023-11-21T10:48:09;100952.34;;;10.09;100.00
54194;BME280;40102;50.906;6.972;2023-11-21T10:50:46;100943.63;;;10.05;100.00
54194;BME280;40102;50.906;6.972;2023-11-21T10:53:12;100957.63;;;10.11;100.00
54194;BME280;40102;50.906;6.972;2023-11-21T10:55:38;100950.41;;;10.13;100.00
54194;BME280;40102;50.906;6.972;2023-11-21T10:58:04;100956.69;;;10.12;100.00
54194;BME280;40102;50.906;6.972;2023-11-21T11:00:32;100960.16;;;10.14;100.00
54194;BME280;40102;50.906;6.972;2023-11-21T11:02:58;100965.41;;;10.15;100.00
54194;BME280;40102;50.906;6.972;2023-11-21T11:05:25;100966.34;;;10.14;100.00
54194;BME280;40102;50.906;6.972;2023-11-21T11:08:12;100963.69;;;10.14;100.00
54194;BME280;40102;50.906;6.972;2023-11-21T11:10:38;100969.19;;;10.11;100.00
54194;BME280;40102;50.906;6.972;2023-11-21T11:13:04;100968.16;;;10.14;100.00
54194;BME280;40102;50.906;6.972;2023-11-21T11:15:29;100963.84;;;10.11;100.00
54194;BME280;40102;50.906;6.972;2023-11-21T11:17:55;100972.66;;;10.13;100.00
54194;BME280;40102;50.906;6.972;2023-11-21T11:20:23;100969.09;;;10.13;100.00
54194;BME280;40102;50.906;6.972;2023-11-21T11:23:04;100970.91;;;10.12;100.00
54194;BME280;40102;50.906;6.972;2023-11-21T11:25:47;100976.19;;;10.14;100.00
54194;BME280;40102;50.906;6.972;2023-11-21T11:28:27;100977.91;;;10.15;100.00
54194;BME280;40102;50.906;6.972;2023-11-21T11:33:43;100972.41;;;10.18;100.00
54194;BME280;40102;50.906;6.972;2023-11-21T11:36:17;100973.25;;;10.20;100.00
54194;BME280;40102;50.906;6.972;2023-11-21T11:38:47;100964.47;;;10.16;100.00
54194;BME280;40102;50.906;6.972;2023-11-21T11:41:27;100969.81;;;10.16;100.00
54194;BME280;40102;50.906;6.972;2023-11-21T11:43:54;100965.50;;;10.14;100.00
54194;BME280;40102;50.906;6.972;2023-11-21T11:46:20;100974.22;;;10.17;100.00
54194;BME280;40102;50.906;6.972;2023-11-21T11:48:48;100974.28;;;10.16;100.00
54194;BME280;40102;50.906;6.972;2023-11-21T11:51:27;100971.69;;;10.14;100.00
54194;BME280;40102;50.906;6.972;2023-11-21T11:53:52;100976.25;;;10.12;100.00
54194;BME280;40102;50.906;6.972;2023-11-21T11:56:29;100990.25;;;10.17;100.00
54194;BME280;40102;50.906;6.972;2023-11-21T11:59:01;100985.94;;;10.15;100.00
54194;BME280;40102;50.906;6.972;2023-11-21T12:01:33;100991.03;;;10.19;100.00
54194;BME280;40102;50.906;6.972;2023-11-21T12:06:36;100980.16;;;10.24;100.00
54194;BME280;40102;50.906;6.972;2023-11-21T12:09:02;100984.63;;;10.23;100.00
54194;BME280;40102;50.906;6.972;2023-11-21T12:11:33;100993.38;;;10.27;100.00
54194;BME280;40102;50.906;6.972;2023-11-21T12:14:01;100991.72;;;10.24;100.00
54194;BME280;40102;50.906;6.972;2023-11-21T12:16:32;100989.13;;;10.23;100.00
54194;BME280;40102;50.906;6.972;2023-11-21T12:18:58;100993.53;;;10.24;100.00
54194;BME280;40102;50.906;6.972;2023-11-21T12:21:23;101000.59;;;10.25;100.00
54194;BME280;40102;50.906;6.972;2023-11-21T12:23:48;100998.78;;;10.25;100.00
54194;BME280;40102;50.906;6.972;2023-11-21T12:26:14;101005.25;;;10.21;100.00
54194;BME280;40102;50.906;6.972;2023-11-21T12:28:39;101007.75;;;10.24;100.00
54194;BME280;40102;50.906;6.972;2023-11-21T12:31:05;101011.38;;;10.23;100.00
54194;BME280;40102;50.906;6.972;2023-11-21T12:33:35;101011.38;;;10.23;100.00
54194;BME280;40102;50.906;6.972;2023-11-21T12:36:00;101006.03;;;10.23;100.00
54194;BME280;40102;50.906;6.972;2023-11-21T12:38:33;101010.34;;;10.26;100.00
54194;BME280;40102;50.906;6.972;2023-11-21T12:40:59;101021.75;;;10.29;100.00
54194;BME280;40102;50.906;6.972;2023-11-21T12:43:25;101009.34;;;10.28;100.00
54194;BME280;40102;50.906;6.972;2023-11-21T12:45:50;101012.97;;;10.27;100.00